• Join FlightAware (Why Join?)
  • Login
  • US Flag 
07:07PM EDT


 

Airport Tracker/Info


-or-


 

Live Flight TrackerFlight Track Log ✈ TCF3494 ✈ 10-Jul-2013 ✈ KORD - KLGA

Flight Track Log - Related Links

Times and Time Zones

All times are in EDT time to prevent confusion due to time zone crossing. See the TCF3494 flight status page for this flight to view local times or setup timezone preferences in your user account.

Time Position Orientation Groundspeed Altitude Reporting Facility
EDT Latitude Longitude Course Direction KTS MPH feet Rate Location/Type
09:29PM 42.0167 -87.9333 North 158 182 2,200  Level Chicago TRACON
09:30PM 42.0667 -87.9167 14° North 215 247 3,800 1,860 Climbing Chicago TRACON
09:32PM 42.4451 -87.7471 10° North  Level FlightAware Approximate
09:32PM 42.1453 -87.8756 21° North 253 291 6,400  Level Chicago Center
09:33PM 42.5630 -87.7035 12° North  Level FlightAware Approximate
09:33PM 42.2161 -87.8375 22° Northeast 272 313 8,600  Level Chicago Center
09:34PM 42.6838 -87.6665 14° North  Level FlightAware Approximate
09:34PM 42.2919 -87.8172 11° North 282 325 11,000  Level Chicago Center
09:35PM 42.8046 -87.6333 North  Level FlightAware Approximate
09:35PM 42.3806 -87.7931 11° North 294 338 12,400  Level Chicago Center
09:36PM 42.4728 -87.7592 15° North 335 386 13,700 1,320 Climbing Chicago Center
09:37PM 42.5758 -87.7217 15° North 354 407 15,200 1,440 Climbing Chicago Center
09:38PM 42.6678 -87.6892 15° North 365 420 16,700 1,200 Climbing Chicago Center
09:39PM 42.7678 -87.6514 15° North 371 427 17,800 1,680 Climbing Chicago Center
09:40PM 42.8414 -87.5028 56° Northeast 414 476 20,200 1,920 Climbing Chicago Center
09:41PM 42.8569 -87.3594 82° East 434 499 21,800 1,560 Climbing Chicago Center
09:42PM 42.8750 -87.1917 82° East 448 516 23,400 1,440 Climbing Chicago Center
09:43PM 42.8925 -87.0219 82° East 453 521 24,800 1,380 Climbing Chicago Center
09:44PM 42.9144 -86.8128 82° East 466 536 26,300 1,260 Climbing Chicago Center
09:45PM 42.9325 -86.6350 82° East 474 545 27,500 1,020 Climbing Chicago Center
09:46PM 42.9506 -86.4536 82° East 482 555 28,500 1,080 Climbing Chicago Center
09:47PM 42.9683 -86.2706 82° East 489 563 29,800 1,140 Climbing Chicago Center
09:48PM 42.9847 -86.0919 83° East 484 557 30,900 960 Climbing Chicago Center
09:49PM 43.0031 -85.8978 83° East 485 558 31,800 780 Climbing Chicago Center
09:50PM 43.0214 -85.6989 83° East 493 567 32,600 780 Climbing Chicago Center
09:51PM 43.0383 -85.5150 83° East 491 565 33,400 600 Climbing Chicago Center
09:52PM 43.0428 -85.3272 88° East 490 564 33,900 480 Climbing Chicago Center
09:53PM 43.0456 -85.1375 89° East 499 574 34,400 480 Climbing Chicago Center
09:54PM 43.0478 -84.9472 89° East 501 577 35,000 240 Climbing Chicago Center
09:55PM 43.0508 -84.7128 89° East 511 588 35,000  Level Chicago Center
09:56PM 43.0517 -84.5122 90° East 525 604 35,000  Level Chicago Center
09:57PM 43.0528 -84.3094 90° East 532 612 35,000  Level Chicago Center
09:58PM 43.0533 -84.1031 90° East 540 621 35,000  Level Chicago Center
10:00PM 43.0514 -83.7853 90° East 537 618 35,000  Level Cleveland Center
10:01PM 43.0486 -83.5778 91° East 537 618 35,000  Level Cleveland Center
10:02PM 43.0517 -83.3789 89° East 537 618 35,000  Level Cleveland Center
10:03PM 43.0500 -83.1714 91° East 537 618 35,000  Level Cleveland Center
10:04PM 43.0461 -82.9667 91° East 537 618 35,000  Level Cleveland Center
10:05PM 43.0442 -82.7592 91° East 537 618 35,000  Level Cleveland Center
10:06PM 43.0414 -82.5517 91° East 537 618 35,000  Level Cleveland Center
10:07PM 43.0333 -82.3500 93° East 540 621 35,000  Level Toronto Center
10:08PM 43.0167 -82.1333 96° East 540 621 35,000  Level Toronto Center
10:09PM 43.0167 -81.9333 90° East 540 621 35,000  Level Toronto Center
10:10PM 43.0167 -81.7333 90° East 540 621 35,000  Level Toronto Center
10:11PM 43.0167 -81.5333 90° East 540 621 35,000  Level Toronto Center
10:12PM 43.0000 -81.3167 96° East 540 621 35,000  Level Toronto Center
10:13PM 43.0000 -81.1167 90° East 540 621 35,000  Level Toronto Center
10:14PM 42.9833 -80.9167 96° East 540 621 35,000  Level Toronto Center
10:15PM 43.0000 -80.7000 84° East 540 621 35,000  Level Toronto Center
10:16PM 43.0000 -80.5000 90° East 540 621 35,000  Level Toronto Center
10:17PM 42.9833 -80.2667 95° East 540 621 35,000  Level Toronto Center
10:18PM 42.9833 -80.1167 90° East 540 621 35,000  Level Toronto Center
10:19PM 42.9667 -79.8833 95° East 530 610 35,000  Level Toronto Center
10:20PM 42.9667 -79.6833 90° East 530 610 35,000  Level Toronto Center
10:21PM 42.9500 -79.4667 96° East 540 621 35,000  Level Toronto Center
10:22PM 42.9500 -79.2833 90° East 540 621 35,000  Level Toronto Center
10:23PM 42.9333 -79.0667 96° East 530 610 35,000  Level Toronto Center
10:24PM 42.9333 -78.8833 90° East 530 610 35,000  Level Toronto Center
10:25PM 42.9333 -78.6833 90° East 520 598 35,000  Level Toronto Center
10:26PM 42.9000 -78.5000 104° East 520 598 35,000  Level Toronto Center
10:27PM 42.8667 -78.2833 102° East 520 598 35,000  Level Toronto Center
10:28PM 42.8500 -78.0833 96° East 520 598 35,000  Level Toronto Center
10:29PM 42.8333 -77.9000 97° East 520 598 35,000  Level Toronto Center
10:30PM 42.8000 -77.7000 103° East 520 598 35,000  Level Toronto Center
10:31PM 42.7833 -77.5167 97° East 520 598 35,000  Level Toronto Center
10:32PM 42.7500 -77.3167 103° East 520 598 35,000  Level Toronto Center
10:33PM 42.7167 -77.1333 104° East 520 598 35,000  Level Toronto Center
10:34PM 42.7000 -76.9333 96° East 520 598 35,000  Level Toronto Center
10:35PM 42.6833 -76.7500 97° East 510 587 35,000  Level Toronto Center
10:36PM 42.6592 -76.5600 100° East 508 585 35,000 -180 Level Boston Center
10:37PM 42.6325 -76.3744 101° East 508 585 34,700 -600 Descending Boston Center
10:38PM 42.6075 -76.1867 100° East 508 585 33,800 -840 Descending Boston Center
10:39PM 42.5800 -76.0017 101° East 503 579 33,100 -420 Descending Boston Center
10:40PM 42.5503 -75.8167 102° East 503 579 33,000 -60 Descending Boston Center
10:41PM 42.5244 -75.6294 101° East 498 573 33,000  Level Boston Center
10:42PM 42.4997 -75.4619 101° East 498 573 33,000  Level Boston Center
10:43PM 42.4711 -75.2775 102° East 498 573 33,000 -660 Level Boston Center
10:44PM 42.4169 -75.1064 113° Southeast 498 573 31,700 -2,040 Descending Boston Center
10:45PM 42.3542 -74.9406 117° Southeast 498 573 29,000 -2,640 Descending Boston Center
10:46PM 42.2972 -74.7783 115° Southeast 487 560 26,500 -2,460 Descending Boston Center
10:47PM 42.2397 -74.6219 116° Southeast 476 548 24,100 -2,400 Descending Boston Center
10:48PM 42.1842 -74.4742 117° Southeast 455 524 21,800 -2,100 Descending Boston Center
10:49PM 42.1303 -74.3325 117° Southeast 437 503 20,000 -1,920 Descending Boston Center
10:50PM 42.0403 -74.2319 140° Southeast 373 429 18,000 -1,560 Descending Boston Center
10:51PM 41.9514 -74.1819 157° South 378 435 16,900 -1,200 Descending Boston Center
10:52PM 41.8481 -74.1206 156° South 378 435 15,600 -1,260 Descending Boston Center
10:53PM 41.7531 -74.0653 157° South 378 435 14,400 -1,200 Descending Boston Center
10:54PM 41.6683 -74.0158 156° South 372 428 13,200 -1,200 Descending Boston Center
10:55PM 41.5333 -73.9333 155° Southeast 357 411 11,800 -1,200 Descending New York TRACON
10:56PM 41.4500 -73.8833 156° South 324 373 10,600 -1,260 Descending New York TRACON
10:57PM 41.3833 -73.8333 151° Southeast 296 341 9,300 -1,260 Descending New York TRACON
10:58PM 41.3167 -73.7667 143° Southeast 294 338 8,100 -1,020 Descending New York TRACON
10:59PM 41.2500 -73.7167 151° Southeast 296 341 7,300 -1,200 Descending New York TRACON
11:00PM 41.1833 -73.6500 143° Southeast 289 333 5,900 -1,740 Descending New York TRACON
11:01PM 41.1167 -73.6000 151° Southeast 286 329 4,100 -900 Descending New York TRACON
11:02PM 41.0500 -73.6500 209° Southwest 255 293 4,100 -180 Level New York TRACON
11:03PM 41.0000 -73.7000 217° Southwest 255 293 3,800 -600 Descending New York TRACON
11:04PM 40.9333 -73.7500 210° Southwest 242 278 3,000 -780 Descending New York TRACON
11:05PM 40.8833 -73.7833 207° Southwest 196 226 2,300 -780 Descending New York TRACON
11:06PM 40.8500 -73.8167 217° Southwest 157 181 1,400 -900 Descending New York TRACON